Flight Track Log - Related Links

Times and Time Zones

All times are in EDT time to prevent confusion due to time zone crossing. See the SWA1021 flight status page for this flight to view local times or setup timezone preferences in your user account.

Time Position Orientation Groundspeed Altitude Reporting Facility
EDT Latitude Longitude Course Direction KTS MPH feet Rate Location/Type
Tue 10:09:02 AM 37.7500 -122.2833 122° Southeast 177 204 2,500  Level Northern Cal TRACON
Tue 10:10:02 AM 37.7500 -122.3500 270° West 235 270 4,700 2,100 Climbing Northern Cal TRACON
Tue 10:11:02 AM 37.6833 -122.3833 202° Southwest 291 335 6,700 2,600 Climbing Northern Cal TRACON
Tue 10:12:02 AM 37.6000 -122.4167 198° South 335 386 9,900 2,732 Climbing Northern Cal TRACON
Tue 10:13:05 AM 37.4892 -122.4283 185° South 369 425 12,300 2,613 Climbing Oakland Center
Tue 10:14:00 AM 37.2510 -122.2854 122° Southeast  Level FlightAware Approximate
Tue 10:14:06 AM 37.4208 -122.3367 133° Southeast 364 419 15,300  Level Oakland Center
Tue 10:15:07 AM 37.3481 -122.2394 133° Southeast 383 441 17,600 2,164 Climbing Oakland Center
Tue 10:16:08 AM 37.2708 -122.1347 133° Southeast 403 464 19,700 2,115 Climbing Oakland Center
Tue 10:17:09 AM 37.1928 -122.0269 132° Southeast 417 480 21,900 2,115 Climbing Oakland Center
Tue 10:18:10 AM 37.1089 -121.9175 134° Southeast 430 495 24,000 2,164 Climbing Oakland Center
Tue 10:19:11 AM 37.0256 -121.8031 132° Southeast 442 509 26,300 2,016 Climbing Oakland Center
Tue 10:20:12 AM 36.9408 -121.6864 132° Southeast 452 520 28,100 1,328 Climbing Oakland Center
Tue 10:21:13 AM 36.8522 -121.5658 133° Southeast 468 539 29,000 443 Climbing Oakland Center
Tue 10:22:14 AM 36.7603 -121.4411 133° Southeast 471 542 29,000  Level Oakland Center
Tue 10:23:15 AM 36.6711 -121.3219 133° Southeast 471 542 29,000  Level Oakland Center
Tue 10:24:16 AM 36.5836 -121.2028 132° Southeast 469 540 29,000 541 Level Oakland Center
Tue 10:25:17 AM 36.4950 -121.0844 133° Southeast 469 540 30,100 1,377 Climbing Oakland Center
Tue 10:26:18 AM 36.3836 -120.9381 133° Southeast 484 557 31,800 1,377 Climbing Oakland Center
Tue 10:27:19 AM 36.2917 -120.8122 132° Southeast 489 563 32,900 541 Climbing Oakland Center
Tue 10:28:20 AM 36.1969 -120.6908 134° Southeast 491 565 32,900 49 Level Oakland Center
Tue 10:29:21 AM 36.1022 -120.5686 134° Southeast 491 565 33,000 49 Climbing Oakland Center
Tue 10:30:22 AM 36.0092 -120.4444 133° Southeast 494 568 33,000  Level Oakland Center
Tue 10:31:23 AM 35.9150 -120.3225 134° Southeast 489 563 33,000  Level Oakland Center
Tue 10:32:24 AM 35.8189 -120.1992 134° Southeast 495 570 33,000  Level Oakland Center
Tue 10:33:25 AM 35.7225 -120.0736 133° Southeast 498 573 33,000  Level Oakland Center
Tue 10:34:26 AM 35.6203 -119.9522 136° Southeast 507 583 33,000  Level Oakland Center
Tue 10:35:27 AM 35.5003 -119.8492 145° Southeast 519 597 33,000 -49 Level Oakland Center
Tue 10:36:28 AM 35.3808 -119.7464 145° Southeast 520 598 32,900 -366 Descending Oakland Center
Tue 10:36:49 AM 35.3331 -119.7064 146° Southeast 522 601 32,500 -1,012 Descending Los Angeles Center
Tue 10:37:51 AM 35.2150 -119.6053 145° Southeast 517 595 31,500 -968 Descending Los Angeles Center
Tue 10:38:53 AM 35.0986 -119.5050 145° Southeast 513 590 30,500 -1,597 Descending Los Angeles Center
Tue 10:39:55 AM 34.9803 -119.4028 145° Southeast 516 594 28,200 -2,341 Descending Los Angeles Center
Tue 10:40:56 AM 34.8611 -119.3017 145° Southeast 520 598 25,700 -2,390 Descending Los Angeles Center
Tue 10:41:58 AM 34.7469 -119.2058 145° Southeast 504 580 23,300 -2,323 Descending Los Angeles Center
Tue 10:43:00 AM 34.6317 -119.1131 146° Southeast 479 551 20,900 -2,226 Descending Los Angeles Center
Tue 10:44:02 AM 34.5236 -119.0247 146° Southeast 459 528 18,700 -2,129 Descending Los Angeles Center
Tue 10:45:04 AM 34.4214 -118.9369 145° Southeast 447 514 16,500 -2,115 Descending Los Angeles Center
Tue 10:46:04 AM 34.2892 -118.8558 153° Southeast 456 525 14,400 -2,164 Descending Los Angeles Center
Tue 10:47:06 AM 34.1756 -118.8139 163° South 424 488 12,100 -2,115 Descending Los Angeles Center
Tue 10:48:06 AM 34.0728 -118.7769 163° South 370 426 10,100 -1,033 Descending Los Angeles Center
Tue 10:49:08 AM 34.0314 -118.6911 120° Southeast 297 342 10,000 -619 Descending Los Angeles Center
Tue 10:50:12 AM 34.0219 -118.5853 96° East 291 335 8,800 -1,200 Descending Los Angeles Center
Tue 10:51:13 AM 34.0133 -118.4917 96° East 282 325 7,500 -1,131 Descending Los Angeles Center
Tue 10:52:14 AM 34.0144 -118.4156 89° East 265 305 6,500 -1,200 Descending Los Angeles Center
Tue 10:53:18 AM 34.0247 -118.3169 83° East 249 287 5,000 -1,161 Descending Los Angeles Center
Tue 10:54:18 AM 34.0072 -118.2592 110° East 215 247 4,100 -1,131 Descending Los Angeles Center
Tue 10:55:20 AM 33.9650 -118.2869 209° Southwest 192 221 2,700 -1,426 Descending Los Angeles Center
Tue 10:56:20 AM 33.9586 -118.3378 261° West 168 193 1,200 -1,073 Descending Los Angeles Center
Tue 10:57:23 AM 33.9556 -118.3839 265° West 151 174 500 -480 Descending Los Angeles Center
Tue 10:58:25 AM 33.9500 -118.4381 263° West 147 169 200 -290 Descending Los Angeles Center
Tue 11:00:00 AM 33.9425 -118.4081 239° Southwest  Level Estimated

Login

Don't have an account? Register now (free) for customized features, flight alerts, and more!